Hollowville, New York
Current Conditions -  °F | °C
As of 12:54 PM on Sunday 21 Dec 2014 (Local Time) from KPSF Reporting Station
Light Snow Light Snow  
Wind Chill: 29°   Ceiling: 3400
Heat Index: 29°   Visibility: 3mi
Dew Point: 26°   Wind: 3mph
Humidity: 89%   Direction: 300°WNW
Pressure: 30.23"   Gusts: NA
Location:  42.21°N, 73.69°W
Report Text: KPSF 211754Z AUTO 30003KT 3SM -SN BR OVC034 M02/M03 A3023 RMK AO2 SLP251 P0000 60000 T10171033 11011 21033 56008
Loading
Personal Weather Stations






























Interactive Weather Map New forecast layout! Learn more

10-Day Weather Forecast

Advertisements
Track Severe Weather on mobile